sensor_id;sensor_type;location;lat;lon;timestamp;temperature;humidity
7512;DHT22;9999;48.780;9.146;2023-04-02T00:01:53;7.60;99.90
7512;DHT22;9999;48.780;9.146;2023-04-02T00:04:21;7.60;99.90
7512;DHT22;9999;48.780;9.146;2023-04-02T00:06:56;7.50;99.90
7512;DHT22;9999;48.780;9.146;2023-04-02T00:09:43;7.60;99.90
7512;DHT22;9999;48.780;9.146;2023-04-02T00:12:14;7.60;99.90
7512;DHT22;9999;48.780;9.146;2023-04-02T00:14:47;7.60;99.90
7512;DHT22;9999;48.780;9.146;2023-04-02T00:17:14;7.60;99.90
7512;DHT22;9999;48.780;9.146;2023-04-02T00:19:44;7.60;99.90
7512;DHT22;9999;48.780;9.146;2023-04-02T00:22:15;7.50;99.90
7512;DHT22;9999;48.780;9.146;2023-04-02T00:24:44;7.50;99.90
7512;DHT22;9999;48.780;9.146;2023-04-02T00:27:12;7.60;99.90
7512;DHT22;9999;48.780;9.146;2023-04-02T00:29:45;7.50;99.90
7512;DHT22;9999;48.780;9.146;2023-04-02T00:32:17;7.50;99.90
7512;DHT22;9999;48.780;9.146;2023-04-02T00:34:45;7.50;99.90
7512;DHT22;9999;48.780;9.146;2023-04-02T00:37:16;7.60;99.90
7512;DHT22;9999;48.780;9.146;2023-04-02T00:39:51;7.60;99.90
7512;DHT22;9999;48.780;9.146;2023-04-02T00:42:21;7.50;99.90
7512;DHT22;9999;48.780;9.146;2023-04-02T00:44:50;7.50;99.90
7512;DHT22;9999;48.780;9.146;2023-04-02T00:47:21;7.50;99.90
7512;DHT22;9999;48.780;9.146;2023-04-02T00:49:53;7.50;99.90
7512;DHT22;9999;48.780;9.146;2023-04-02T00:52:24;7.50;99.90
7512;DHT22;9999;48.780;9.146;2023-04-02T00:55:00;7.50;99.90
7512;DHT22;9999;48.780;9.146;2023-04-02T00:57:28;7.50;99.90
7512;DHT22;9999;48.780;9.146;2023-04-02T01:03:51;7.50;99.90
7512;DHT22;9999;48.780;9.146;2023-04-02T01:06:19;7.50;99.90
7512;DHT22;9999;48.780;9.146;2023-04-02T01:08:54;7.60;99.90
7512;DHT22;9999;48.780;9.146;2023-04-02T01:11:36;7.60;99.90
7512;DHT22;9999;48.780;9.146;2023-04-02T01:14:16;7.60;99.90
7512;DHT22;9999;48.780;9.146;2023-04-02T01:16:50;7.60;99.90
7512;DHT22;9999;48.780;9.146;2023-04-02T01:19:45;7.60;99.90
7512;DHT22;9999;48.780;9.146;2023-04-02T01:22:22;7.60;99.90
7512;DHT22;9999;48.780;9.146;2023-04-02T01:24:55;7.60;99.90
7512;DHT22;9999;48.780;9.146;2023-04-02T01:27:27;7.60;99.90
7512;DHT22;9999;48.780;9.146;2023-04-02T01:29:57;7.70;99.90
7512;DHT22;9999;48.780;9.146;2023-04-02T01:32:28;7.60;99.90
7512;DHT22;9999;48.780;9.146;2023-04-02T01:34:56;7.70;99.90
7512;DHT22;9999;48.780;9.146;2023-04-02T01:37:32;7.70;99.90
7512;DHT22;9999;48.780;9.146;2023-04-02T01:40:12;7.70;99.90
7512;DHT22;9999;48.780;9.146;2023-04-02T01:42:49;7.70;99.90
7512;DHT22;9999;48.780;9.146;2023-04-02T01:45:20;7.70;99.90
7512;DHT22;9999;48.780;9.146;2023-04-02T01:47:48;7.70;99.90
7512;DHT22;9999;48.780;9.146;2023-04-02T01:50:26;7.70;99.90
7512;DHT22;9999;48.780;9.146;2023-04-02T01:52:58;7.70;99.90
7512;DHT22;9999;48.780;9.146;2023-04-02T01:55:31;7.70;99.90
7512;DHT22;9999;48.780;9.146;2023-04-02T01:57:59;7.80;99.90
7512;DHT22;9999;48.780;9.146;2023-04-02T02:00:28;7.70;99.90
7512;DHT22;9999;48.780;9.146;2023-04-02T02:02:58;7.70;99.90
7512;DHT22;9999;48.780;9.146;2023-04-02T02:05:26;7.80;99.90
7512;DHT22;9999;48.780;9.146;2023-04-02T02:07:55;7.80;99.90
7512;DHT22;9999;48.780;9.146;2023-04-02T02:10:26;7.70;99.90
7512;DHT22;9999;48.780;9.146;2023-04-02T02:12:54;7.70;99.90
7512;DHT22;9999;48.780;9.146;2023-04-02T02:15:22;7.70;99.90
7512;DHT22;9999;48.780;9.146;2023-04-02T02:17:54;7.80;99.90
7512;DHT22;9999;48.780;9.146;2023-04-02T02:20:23;7.80;99.90
7512;DHT22;9999;48.780;9.146;2023-04-02T02:22:52;7.80;99.90
7512;DHT22;9999;48.780;9.146;2023-04-02T02:25:21;7.80;99.90
7512;DHT22;9999;48.780;9.146;2023-04-02T02:27:57;7.80;99.90
7512;DHT22;9999;48.780;9.146;2023-04-02T02:30:27;7.70;99.90
7512;DHT22;9999;48.780;9.146;2023-04-02T02:33:01;7.70;99.90
7512;DHT22;9999;48.780;9.146;2023-04-02T02:35:32;7.80;99.90
7512;DHT22;9999;48.780;9.146;2023-04-02T02:41:05;7.70;99.90
7512;DHT22;9999;48.780;9.146;2023-04-02T02:43:34;7.70;99.90
7512;DHT22;9999;48.780;9.146;2023-04-02T02:46:05;7.70;99.90
7512;DHT22;9999;48.780;9.146;2023-04-02T02:48:37;7.70;99.90
7512;DHT22;9999;48.780;9.146;2023-04-02T02:51:09;7.70;99.90
7512;DHT22;9999;48.780;9.146;2023-04-02T02:53:45;7.70;99.90
7512;DHT22;9999;48.780;9.146;2023-04-02T02:56:13;7.70;99.90
7512;DHT22;9999;48.780;9.146;2023-04-02T02:58:42;7.70;99.90
7512;DHT22;9999;48.780;9.146;2023-04-02T03:01:20;7.70;99.90
7512;DHT22;9999;48.780;9.146;2023-04-02T03:03:53;7.70;99.90
7512;DHT22;9999;48.780;9.146;2023-04-02T03:06:21;7.70;99.90
7512;DHT22;9999;48.780;9.146;2023-04-02T03:09:02;7.70;99.90
7512;DHT22;9999;48.780;9.146;2023-04-02T03:11:37;7.70;99.90
7512;DHT22;9999;48.780;9.146;2023-04-02T03:14:15;7.70;99.90
7512;DHT22;9999;48.780;9.146;2023-04-02T03:16:46;7.80;99.90
7512;DHT22;9999;48.780;9.146;2023-04-02T03:19:26;7.80;99.90
7512;DHT22;9999;48.780;9.146;2023-04-02T03:21:57;7.80;99.90
7512;DHT22;9999;48.780;9.146;2023-04-02T03:24:34;7.80;99.90
7512;DHT22;9999;48.780;9.146;2023-04-02T03:27:06;7.80;99.90
7512;DHT22;9999;48.780;9.146;2023-04-02T03:29:38;7.90;99.90
7512;DHT22;9999;48.780;9.146;2023-04-02T03:32:11;7.80;99.90
7512;DHT22;9999;48.780;9.146;2023-04-02T03:34:45;7.80;99.90
7512;DHT22;9999;48.780;9.146;2023-04-02T03:37:17;7.80;99.90
7512;DHT22;9999;48.780;9.146;2023-04-02T03:39:47;7.80;99.90
7512;DHT22;9999;48.780;9.146;2023-04-02T03:42:19;7.80;99.90
7512;DHT22;9999;48.780;9.146;2023-04-02T03:44:51;7.80;99.90
7512;DHT22;9999;48.780;9.146;2023-04-02T03:47:27;7.80;99.90
7512;DHT22;9999;48.780;9.146;2023-04-02T03:49:59;7.80;99.90
7512;DHT22;9999;48.780;9.146;2023-04-02T03:52:28;7.80;99.90
7512;DHT22;9999;48.780;9.146;2023-04-02T03:54:59;7.70;99.90
7512;DHT22;9999;48.780;9.146;2023-04-02T03:57:34;7.80;99.90
7512;DHT22;9999;48.780;9.146;2023-04-02T04:00:07;7.80;99.90
7512;DHT22;9999;48.780;9.146;2023-04-02T04:02:44;7.70;99.90
7512;DHT22;9999;48.780;9.146;2023-04-02T04:05:22;7.70;99.90
7512;DHT22;9999;48.780;9.146;2023-04-02T04:07:54;7.70;99.90
7512;DHT22;9999;48.780;9.146;2023-04-02T04:10:24;7.70;99.90
7512;DHT22;9999;48.780;9.146;2023-04-02T04:12:54;7.70;99.90
7512;DHT22;9999;48.780;9.146;2023-04-02T04:15:27;7.70;99.90
7512;DHT22;9999;48.780;9.146;2023-04-02T04:18:00;7.80;99.90
7512;DHT22;9999;48.780;9.146;2023-04-02T04:20:39;7.70;99.90
7512;DHT22;9999;48.780;9.146;2023-04-02T04:23:21;7.70;99.90
7512;DHT22;9999;48.780;9.146;2023-04-02T04:25:58;7.70;99.90
7512;DHT22;9999;48.780;9.146;2023-04-02T04:28:35;7.70;99.90
7512;DHT22;9999;48.780;9.146;2023-04-02T04:31:13;7.70;99.90
7512;DHT22;9999;48.780;9.146;2023-04-02T04:33:47;7.70;99.90
7512;DHT22;9999;48.780;9.146;2023-04-02T04:36:24;7.60;99.90
7512;DHT22;9999;48.780;9.146;2023-04-02T04:39:03;7.60;99.90
7512;DHT22;9999;48.780;9.146;2023-04-02T04:41:34;7.70;99.90
7512;DHT22;9999;48.780;9.146;2023-04-02T04:44:06;7.80;99.90
7512;DHT22;9999;48.780;9.146;2023-04-02T04:46:41;7.70;99.90
7512;DHT22;9999;48.780;9.146;2023-04-02T04:49:14;7.70;99.90
7512;DHT22;9999;48.780;9.146;2023-04-02T04:51:47;7.60;99.90
7512;DHT22;9999;48.780;9.146;2023-04-02T04:54:17;7.70;99.90
7512;DHT22;9999;48.780;9.146;2023-04-02T04:56:49;7.70;99.90
7512;DHT22;9999;48.780;9.146;2023-04-02T04:59:21;7.70;99.90
7512;DHT22;9999;48.780;9.146;2023-04-02T05:01:54;7.70;99.90
7512;DHT22;9999;48.780;9.146;2023-04-02T05:04:25;7.70;99.90
7512;DHT22;9999;48.780;9.146;2023-04-02T05:07:00;7.70;99.90
7512;DHT22;9999;48.780;9.146;2023-04-02T05:09:31;7.70;99.90
7512;DHT22;9999;48.780;9.146;2023-04-02T05:12:05;7.70;99.90
7512;DHT22;9999;48.780;9.146;2023-04-02T05:14:37;7.60;99.90
7512;DHT22;9999;48.780;9.146;2023-04-02T05:17:09;7.60;99.90
7512;DHT22;9999;48.780;9.146;2023-04-02T05:19:43;7.60;99.90
7512;DHT22;9999;48.780;9.146;2023-04-02T05:22:21;7.60;99.90
7512;DHT22;9999;48.780;9.146;2023-04-02T05:24:57;7.60;99.90
7512;DHT22;9999;48.780;9.146;2023-04-02T05:27:36;7.60;99.90
7512;DHT22;9999;48.780;9.146;2023-04-02T05:30:14;7.60;99.90
7512;DHT22;9999;48.780;9.146;2023-04-02T05:32:47;7.70;99.90
7512;DHT22;9999;48.780;9.146;2023-04-02T05:35:19;7.80;99.90
7512;DHT22;9999;48.780;9.146;2023-04-02T05:37:52;7.80;99.90
7512;DHT22;9999;48.780;9.146;2023-04-02T05:40:21;7.90;99.90
7512;DHT22;9999;48.780;9.146;2023-04-02T05:42:50;8.00;99.90
7512;DHT22;9999;48.780;9.146;2023-04-02T05:45:28;8.00;99.90
7512;DHT22;9999;48.780;9.146;2023-04-02T05:48:00;7.90;99.90
7512;DHT22;9999;48.780;9.146;2023-04-02T05:50:36;7.90;99.90
7512;DHT22;9999;48.780;9.146;2023-04-02T05:53:16;8.00;99.90
7512;DHT22;9999;48.780;9.146;2023-04-02T05:55:51;7.90;99.90
7512;DHT22;9999;48.780;9.146;2023-04-02T05:58:26;8.00;99.90
7512;DHT22;9999;48.780;9.146;2023-04-02T06:01:04;8.00;99.90
7512;DHT22;9999;48.780;9.146;2023-04-02T06:03:39;8.00;99.90
7512;DHT22;9999;48.780;9.146;2023-04-02T06:06:16;8.10;99.90
7512;DHT22;9999;48.780;9.146;2023-04-02T06:08:53;8.10;99.90
7512;DHT22;9999;48.780;9.146;2023-04-02T06:11:25;8.10;99.90
7512;DHT22;9999;48.780;9.146;2023-04-02T06:13:55;8.10;99.90
7512;DHT22;9999;48.780;9.146;2023-04-02T06:16:25;8.10;99.90
7512;DHT22;9999;48.780;9.146;2023-04-02T06:18:53;8.10;99.90
7512;DHT22;9999;48.780;9.146;2023-04-02T06:21:20;8.20;99.90
7512;DHT22;9999;48.780;9.146;2023-04-02T06:23:54;8.30;99.90
7512;DHT22;9999;48.780;9.146;2023-04-02T06:26:27;8.30;99.90
7512;DHT22;9999;48.780;9.146;2023-04-02T06:28:59;8.30;99.90
7512;DHT22;9999;48.780;9.146;2023-04-02T06:31:33;8.30;99.90
7512;DHT22;9999;48.780;9.146;2023-04-02T06:34:05;8.30;99.90
7512;DHT22;9999;48.780;9.146;2023-04-02T06:36:33;8.40;99.90
7512;DHT22;9999;48.780;9.146;2023-04-02T06:39:09;8.30;99.90
7512;DHT22;9999;48.780;9.146;2023-04-02T06:41:40;8.40;99.90
7512;DHT22;9999;48.780;9.146;2023-04-02T06:44:32;8.40;99.90
7512;DHT22;9999;48.780;9.146;2023-04-02T06:47:23;8.30;99.90
7512;DHT22;9999;48.780;9.146;2023-04-02T06:49:57;8.40;99.90
7512;DHT22;9999;48.780;9.146;2023-04-02T06:52:28;8.50;99.90
7512;DHT22;9999;48.780;9.146;2023-04-02T06:54:58;8.50;99.90
7512;DHT22;9999;48.780;9.146;2023-04-02T06:57:26;8.60;99.90
7512;DHT22;9999;48.780;9.146;2023-04-02T06:59:53;8.60;99.90
7512;DHT22;9999;48.780;9.146;2023-04-02T07:02:28;8.40;99.90
7512;DHT22;9999;48.780;9.146;2023-04-02T07:05:00;8.50;99.90
7512;DHT22;9999;48.780;9.146;2023-04-02T07:07:29;8.60;99.90
7512;DHT22;9999;48.780;9.146;2023-04-02T07:09:58;8.50;99.90
7512;DHT22;9999;48.780;9.146;2023-04-02T07:12:25;8.60;99.90
7512;DHT22;9999;48.780;9.146;2023-04-02T07:14:53;8.70;99.90
7512;DHT22;9999;48.780;9.146;2023-04-02T07:17:20;8.70;99.90
7512;DHT22;9999;48.780;9.146;2023-04-02T07:19:47;8.70;99.90
7512;DHT22;9999;48.780;9.146;2023-04-02T07:22:17;8.80;99.90
7512;DHT22;9999;48.780;9.146;2023-04-02T07:24:47;8.80;99.90
7512;DHT22;9999;48.780;9.146;2023-04-02T07:27:15;8.80;99.90
7512;DHT22;9999;48.780;9.146;2023-04-02T07:29:42;8.80;99.90
7512;DHT22;9999;48.780;9.146;2023-04-02T07:32:09;8.80;99.90
7512;DHT22;9999;48.780;9.146;2023-04-02T07:34:36;8.80;99.90
7512;DHT22;9999;48.780;9.146;2023-04-02T07:37:03;8.80;99.90
7512;DHT22;9999;48.780;9.146;2023-04-02T07:39:31;8.80;99.90
7512;DHT22;9999;48.780;9.146;2023-04-02T07:41:59;8.90;99.90
7512;DHT22;9999;48.780;9.146;2023-04-02T07:44:28;8.90;99.90
7512;DHT22;9999;48.780;9.146;2023-04-02T07:46:55;9.00;99.90
7512;DHT22;9999;48.780;9.146;2023-04-02T07:49:22;8.90;99.90
7512;DHT22;9999;48.780;9.146;2023-04-02T07:51:50;9.00;99.90
7512;DHT22;9999;48.780;9.146;2023-04-02T07:54:17;9.00;99.90
7512;DHT22;9999;48.780;9.146;2023-04-02T07:56:44;9.00;99.90
7512;DHT22;9999;48.780;9.146;2023-04-02T07:59:11;9.10;99.90
7512;DHT22;9999;48.780;9.146;2023-04-02T08:01:39;9.10;99.90
7512;DHT22;9999;48.780;9.146;2023-04-02T08:04:15;9.10;99.90
7512;DHT22;9999;48.780;9.146;2023-04-02T08:06:42;9.20;99.90
7512;DHT22;9999;48.780;9.146;2023-04-02T08:09:10;9.20;99.90
7512;DHT22;9999;48.780;9.146;2023-04-02T08:11:37;9.20;99.90
7512;DHT22;9999;48.780;9.146;2023-04-02T08:14:04;9.30;99.90
7512;DHT22;9999;48.780;9.146;2023-04-02T08:16:44;9.30;99.90
7512;DHT22;9999;48.780;9.146;2023-04-02T08:19:12;9.20;99.90
7512;DHT22;9999;48.780;9.146;2023-04-02T08:21:39;9.20;99.90
7512;DHT22;9999;48.780;9.146;2023-04-02T08:24:06;9.20;99.90
7512;DHT22;9999;48.780;9.146;2023-04-02T08:26:33;9.20;99.90
7512;DHT22;9999;48.780;9.146;2023-04-02T08:29:00;9.30;99.90
7512;DHT22;9999;48.780;9.146;2023-04-02T08:31:27;9.30;99.90
7512;DHT22;9999;48.780;9.146;2023-04-02T08:33:56;9.30;99.90
7512;DHT22;9999;48.780;9.146;2023-04-02T08:36:26;9.30;99.90
7512;DHT22;9999;48.780;9.146;2023-04-02T08:38:54;9.30;99.90
7512;DHT22;9999;48.780;9.146;2023-04-02T08:41:22;9.30;99.90
7512;DHT22;9999;48.780;9.146;2023-04-02T08:44:08;9.30;99.90
7512;DHT22;9999;48.780;9.146;2023-04-02T08:46:43;9.30;99.90
7512;DHT22;9999;48.780;9.146;2023-04-02T08:49:14;9.40;99.90
7512;DHT22;9999;48.780;9.146;2023-04-02T08:51:43;9.30;99.90
7512;DHT22;9999;48.780;9.146;2023-04-02T08:54:16;9.30;99.90
7512;DHT22;9999;48.780;9.146;2023-04-02T08:56:50;9.30;99.90
7512;DHT22;9999;48.780;9.146;2023-04-02T08:59:21;9.40;99.90
7512;DHT22;9999;48.780;9.146;2023-04-02T09:01:55;9.40;99.90
7512;DHT22;9999;48.780;9.146;2023-04-02T09:04:27;9.40;99.90
7512;DHT22;9999;48.780;9.146;2023-04-02T09:06:55;9.40;99.90
7512;DHT22;9999;48.780;9.146;2023-04-02T09:09:22;9.40;99.90
7512;DHT22;9999;48.780;9.146;2023-04-02T09:11:52;9.40;99.90
7512;DHT22;9999;48.780;9.146;2023-04-02T09:14:23;9.30;99.90
7512;DHT22;9999;48.780;9.146;2023-04-02T09:16:53;9.30;99.90
7512;DHT22;9999;48.780;9.146;2023-04-02T09:19:22;9.30;99.90
7512;DHT22;9999;48.780;9.146;2023-04-02T09:22:05;9.40;99.90
7512;DHT22;9999;48.780;9.146;2023-04-02T09:24:34;9.40;99.90
7512;DHT22;9999;48.780;9.146;2023-04-02T09:27:02;9.40;99.90
7512;DHT22;9999;48.780;9.146;2023-04-02T09:29:47;9.40;99.90
7512;DHT22;9999;48.780;9.146;2023-04-02T09:32:24;9.20;99.90
7512;DHT22;9999;48.780;9.146;2023-04-02T09:35:08;9.30;99.90
7512;DHT22;9999;48.780;9.146;2023-04-02T09:37:39;9.40;99.90
7512;DHT22;9999;48.780;9.146;2023-04-02T09:40:21;9.40;99.90
7512;DHT22;9999;48.780;9.146;2023-04-02T09:43:01;9.50;99.90
7512;DHT22;9999;48.780;9.146;2023-04-02T09:45:28;9.50;99.90
7512;DHT22;9999;48.780;9.146;2023-04-02T09:47:56;9.50;99.90
7512;DHT22;9999;48.780;9.146;2023-04-02T09:50:28;9.50;99.90
7512;DHT22;9999;48.780;9.146;2023-04-02T09:52:57;9.40;99.90
7512;DHT22;9999;48.780;9.146;2023-04-02T09:55:25;9.30;99.90
7512;DHT22;9999;48.780;9.146;2023-04-02T09:58:10;9.40;99.90
7512;DHT22;9999;48.780;9.146;2023-04-02T10:00:38;9.50;99.90
7512;DHT22;9999;48.780;9.146;2023-04-02T10:03:20;9.50;99.90
7512;DHT22;9999;48.780;9.146;2023-04-02T10:05:48;9.60;99.90
7512;DHT22;9999;48.780;9.146;2023-04-02T10:08:31;9.50;99.90
7512;DHT22;9999;48.780;9.146;2023-04-02T10:10:59;9.60;99.90
7512;DHT22;9999;48.780;9.146;2023-04-02T10:13:29;9.60;99.90
7512;DHT22;9999;48.780;9.146;2023-04-02T10:16:00;9.60;99.90
7512;DHT22;9999;48.780;9.146;2023-04-02T10:18:40;9.60;99.90
7512;DHT22;9999;48.780;9.146;2023-04-02T10:21:10;9.70;99.90
7512;DHT22;9999;48.780;9.146;2023-04-02T10:23:39;9.60;99.90
7512;DHT22;9999;48.780;9.146;2023-04-02T10:26:18;9.70;99.90
7512;DHT22;9999;48.780;9.146;2023-04-02T10:29:00;9.80;99.90
7512;DHT22;9999;48.780;9.146;2023-04-02T10:31:35;9.80;99.90
7512;DHT22;9999;48.780;9.146;2023-04-02T10:34:14;9.90;99.90
7512;DHT22;9999;48.780;9.146;2023-04-02T10:36:49;9.70;99.90
7512;DHT22;9999;48.780;9.146;2023-04-02T10:39:23;9.90;99.90
7512;DHT22;9999;48.780;9.146;2023-04-02T10:41:58;9.90;99.90
7512;DHT22;9999;48.780;9.146;2023-04-02T10:44:32;9.80;99.90
7512;DHT22;9999;48.780;9.146;2023-04-02T10:47:15;9.90;99.90
7512;DHT22;9999;48.780;9.146;2023-04-02T10:49:49;9.90;99.90
7512;DHT22;9999;48.780;9.146;2023-04-02T10:52:20;9.80;99.90
7512;DHT22;9999;48.780;9.146;2023-04-02T10:54:53;9.90;99.90
7512;DHT22;9999;48.780;9.146;2023-04-02T10:57:29;10.00;99.90
7512;DHT22;9999;48.780;9.146;2023-04-02T11:00:13;10.00;99.90
7512;DHT22;9999;48.780;9.146;2023-04-02T11:02:46;10.10;99.90
7512;DHT22;9999;48.780;9.146;2023-04-02T11:05:19;10.20;99.90
7512;DHT22;9999;48.780;9.146;2023-04-02T11:07:59;10.20;99.90
7512;DHT22;9999;48.780;9.146;2023-04-02T11:10:31;10.10;99.90
7512;DHT22;9999;48.780;9.146;2023-04-02T11:13:04;10.20;99.90
7512;DHT22;9999;48.780;9.146;2023-04-02T11:15:34;10.20;99.90
7512;DHT22;9999;48.780;9.146;2023-04-02T11:18:01;10.20;99.90
7512;DHT22;9999;48.780;9.146;2023-04-02T11:20:57;10.20;99.90
7512;DHT22;9999;48.780;9.146;2023-04-02T11:23:27;10.20;99.90
7512;DHT22;9999;48.780;9.146;2023-04-02T11:29:14;10.30;99.90
7512;DHT22;9999;48.780;9.146;2023-04-02T11:31:42;10.40;99.90
7512;DHT22;9999;48.780;9.146;2023-04-02T11:34:14;10.50;99.90
7512;DHT22;9999;48.780;9.146;2023-04-02T11:36:58;10.40;99.90
7512;DHT22;9999;48.780;9.146;2023-04-02T11:39:46;10.40;99.90
7512;DHT22;9999;48.780;9.146;2023-04-02T11:42:26;10.40;99.90
7512;DHT22;9999;48.780;9.146;2023-04-02T11:44:58;10.50;99.90
7512;DHT22;9999;48.780;9.146;2023-04-02T11:47:26;10.50;99.90
7512;DHT22;9999;48.780;9.146;2023-04-02T11:50:05;10.60;99.90
7512;DHT22;9999;48.780;9.146;2023-04-02T11:52:35;10.70;99.90
7512;DHT22;9999;48.780;9.146;2023-04-02T11:55:21;10.70;99.90
7512;DHT22;9999;48.780;9.146;2023-04-02T12:01:31;10.80;99.90
7512;DHT22;9999;48.780;9.146;2023-04-02T12:04:38;10.90;99.90
7512;DHT22;9999;48.780;9.146;2023-04-02T12:07:30;11.00;99.90
7512;DHT22;9999;48.780;9.146;2023-04-02T12:10:03;11.00;99.90
7512;DHT22;9999;48.780;9.146;2023-04-02T12:12:35;11.10;99.90
7512;DHT22;9999;48.780;9.146;2023-04-02T12:15:05;11.20;99.90
7512;DHT22;9999;48.780;9.146;2023-04-02T12:17:36;11.30;99.90
7512;DHT22;9999;48.780;9.146;2023-04-02T12:20:17;11.30;99.90
7512;DHT22;9999;48.780;9.146;2023-04-02T12:22:48;11.40;99.90
7512;DHT22;9999;48.780;9.146;2023-04-02T12:25:22;11.40;99.90
7512;DHT22;9999;48.780;9.146;2023-04-02T12:28:06;11.40;99.90
7512;DHT22;9999;48.780;9.146;2023-04-02T12:30:42;11.30;99.90
7512;DHT22;9999;48.780;9.146;2023-04-02T12:33:26;11.30;99.90
7512;DHT22;9999;48.780;9.146;2023-04-02T12:35:56;11.20;99.90
7512;DHT22;9999;48.780;9.146;2023-04-02T12:38:25;11.20;99.90
7512;DHT22;9999;48.780;9.146;2023-04-02T12:40:53;11.20;99.90
7512;DHT22;9999;48.780;9.146;2023-04-02T12:43:24;11.30;99.90
7512;DHT22;9999;48.780;9.146;2023-04-02T12:45:52;11.30;99.90
7512;DHT22;9999;48.780;9.146;2023-04-02T12:48:21;11.30;99.90
7512;DHT22;9999;48.780;9.146;2023-04-02T12:50:48;11.30;99.90
7512;DHT22;9999;48.780;9.146;2023-04-02T12:53:21;11.20;99.90
7512;DHT22;9999;48.780;9.146;2023-04-02T12:55:50;11.10;99.90
7512;DHT22;9999;48.780;9.146;2023-04-02T12:58:24;11.10;99.90
7512;DHT22;9999;48.780;9.146;2023-04-02T13:00:52;11.10;99.90
7512;DHT22;9999;48.780;9.146;2023-04-02T13:03:35;11.10;99.90
7512;DHT22;9999;48.780;9.146;2023-04-02T13:06:02;11.10;99.90
7512;DHT22;9999;48.780;9.146;2023-04-02T13:08:30;11.20;99.90
7512;DHT22;9999;48.780;9.146;2023-04-02T13:11:03;11.10;99.90
7512;DHT22;9999;48.780;9.146;2023-04-02T13:13:33;11.20;99.90
7512;DHT22;9999;48.780;9.146;2023-04-02T13:16:03;11.30;99.90
7512;DHT22;9999;48.780;9.146;2023-04-02T13:18:32;11.20;99.90
7512;DHT22;9999;48.780;9.146;2023-04-02T13:21:02;11.20;99.90
7512;DHT22;9999;48.780;9.146;2023-04-02T13:23:34;11.30;99.90
7512;DHT22;9999;48.780;9.146;2023-04-02T13:26:13;11.20;99.90
7512;DHT22;9999;48.780;9.146;2023-04-02T13:28:41;11.20;99.90
7512;DHT22;9999;48.780;9.146;2023-04-02T13:31:13;11.20;99.90
7512;DHT22;9999;48.780;9.146;2023-04-02T13:33:41;11.10;99.90
7512;DHT22;9999;48.780;9.146;2023-04-02T13:36:12;11.00;99.90
7512;DHT22;9999;48.780;9.146;2023-04-02T13:38:39;10.90;99.90
7512;DHT22;9999;48.780;9.146;2023-04-02T13:41:08;10.80;99.90
7512;DHT22;9999;48.780;9.146;2023-04-02T13:43:36;10.70;99.90
7512;DHT22;9999;48.780;9.146;2023-04-02T13:46:04;10.50;99.90
7512;DHT22;9999;48.780;9.146;2023-04-02T13:48:31;10.50;99.90
7512;DHT22;9999;48.780;9.146;2023-04-02T13:50:58;10.40;99.90
7512;DHT22;9999;48.780;9.146;2023-04-02T13:53:29;10.20;99.90
7512;DHT22;9999;48.780;9.146;2023-04-02T13:55:56;10.20;99.90
7512;DHT22;9999;48.780;9.146;2023-04-02T13:58:23;10.10;99.90
7512;DHT22;9999;48.780;9.146;2023-04-02T14:00:50;10.10;99.90
7512;DHT22;9999;48.780;9.146;2023-04-02T14:03:20;10.10;99.90
7512;DHT22;9999;48.780;9.146;2023-04-02T14:05:51;9.90;99.90
7512;DHT22;9999;48.780;9.146;2023-04-02T14:08:29;9.80;99.90
7512;DHT22;9999;48.780;9.146;2023-04-02T14:11:14;9.80;99.90
7512;DHT22;9999;48.780;9.146;2023-04-02T14:14:04;9.70;99.90
7512;DHT22;9999;48.780;9.146;2023-04-02T14:16:45;9.70;99.90
7512;DHT22;9999;48.780;9.146;2023-04-02T14:19:26;9.70;99.90
7512;DHT22;9999;48.780;9.146;2023-04-02T14:22:04;9.80;99.90
7512;DHT22;9999;48.780;9.146;2023-04-02T14:24:44;9.80;99.90
7512;DHT22;9999;48.780;9.146;2023-04-02T14:27:21;9.70;99.90
7512;DHT22;9999;48.780;9.146;2023-04-02T14:29:54;9.60;99.90
7512;DHT22;9999;48.780;9.146;2023-04-02T14:32:27;9.60;99.90
7512;DHT22;9999;48.780;9.146;2023-04-02T14:35:02;9.70;99.90
7512;DHT22;9999;48.780;9.146;2023-04-02T14:37:35;9.60;99.90
7512;DHT22;9999;48.780;9.146;2023-04-02T14:40:13;9.60;99.90
7512;DHT22;9999;48.780;9.146;2023-04-02T14:42:48;9.70;99.90
7512;DHT22;9999;48.780;9.146;2023-04-02T14:45:25;9.70;99.90
7512;DHT22;9999;48.780;9.146;2023-04-02T14:47:57;9.70;99.90
7512;DHT22;9999;48.780;9.146;2023-04-02T14:50:29;9.70;99.90
7512;DHT22;9999;48.780;9.146;2023-04-02T14:53:00;9.70;99.90
7512;DHT22;9999;48.780;9.146;2023-04-02T14:55:34;9.60;99.90
7512;DHT22;9999;48.780;9.146;2023-04-02T14:58:06;9.60;99.90
7512;DHT22;9999;48.780;9.146;2023-04-02T15:00:39;9.50;99.90
7512;DHT22;9999;48.780;9.146;2023-04-02T15:03:12;9.40;99.90
7512;DHT22;9999;48.780;9.146;2023-04-02T15:05:42;9.50;99.90
7512;DHT22;9999;48.780;9.146;2023-04-02T15:08:17;9.40;99.90
7512;DHT22;9999;48.780;9.146;2023-04-02T15:10:54;9.40;99.90
7512;DHT22;9999;48.780;9.146;2023-04-02T15:13:27;9.40;99.90
7512;DHT22;9999;48.780;9.146;2023-04-02T15:16:00;9.30;99.90
7512;DHT22;9999;48.780;9.146;2023-04-02T15:18:30;9.30;99.90
7512;DHT22;9999;48.780;9.146;2023-04-02T15:21:05;9.30;99.90
7512;DHT22;9999;48.780;9.146;2023-04-02T15:23:41;9.30;99.90
7512;DHT22;9999;48.780;9.146;2023-04-02T15:26:17;9.20;99.90
7512;DHT22;9999;48.780;9.146;2023-04-02T15:28:50;9.10;99.90
7512;DHT22;9999;48.780;9.146;2023-04-02T15:31:20;9.10;99.90
7512;DHT22;9999;48.780;9.146;2023-04-02T15:33:52;9.10;99.90
7512;DHT22;9999;48.780;9.146;2023-04-02T15:36:35;8.90;99.90
7512;DHT22;9999;48.780;9.146;2023-04-02T15:42:12;8.80;99.90
7512;DHT22;9999;48.780;9.146;2023-04-02T15:44:45;8.90;99.90
7512;DHT22;9999;48.780;9.146;2023-04-02T15:47:23;8.80;99.90
7512;DHT22;9999;48.780;9.146;2023-04-02T15:49:55;8.90;99.90
7512;DHT22;9999;48.780;9.146;2023-04-02T15:52:29;8.80;99.90
7512;DHT22;9999;48.780;9.146;2023-04-02T15:55:13;8.70;99.90
7512;DHT22;9999;48.780;9.146;2023-04-02T15:58:07;8.70;99.90
7512;DHT22;9999;48.780;9.146;2023-04-02T16:00:40;8.70;99.90
7512;DHT22;9999;48.780;9.146;2023-04-02T16:03:19;8.60;99.90
7512;DHT22;9999;48.780;9.146;2023-04-02T16:05:59;8.60;99.90
7512;DHT22;9999;48.780;9.146;2023-04-02T16:08:39;8.50;99.90
7512;DHT22;9999;48.780;9.146;2023-04-02T16:11:10;8.50;99.90
7512;DHT22;9999;48.780;9.146;2023-04-02T16:13:40;8.50;99.90
7512;DHT22;9999;48.780;9.146;2023-04-02T16:16:10;8.50;99.90
7512;DHT22;9999;48.780;9.146;2023-04-02T16:18:43;8.50;99.90
7512;DHT22;9999;48.780;9.146;2023-04-02T16:21:15;8.50;99.90
7512;DHT22;9999;48.780;9.146;2023-04-02T16:23:43;8.40;99.90
7512;DHT22;9999;48.780;9.146;2023-04-02T16:26:22;8.30;99.90
7512;DHT22;9999;48.780;9.146;2023-04-02T16:28:58;8.30;99.90
7512;DHT22;9999;48.780;9.146;2023-04-02T16:31:34;8.30;99.90
7512;DHT22;9999;48.780;9.146;2023-04-02T16:34:06;8.30;99.90
7512;DHT22;9999;48.780;9.146;2023-04-02T16:36:44;8.10;99.90
7512;DHT22;9999;48.780;9.146;2023-04-02T16:39:24;8.00;99.90
7512;DHT22;9999;48.780;9.146;2023-04-02T16:42:03;8.00;99.90
7512;DHT22;9999;48.780;9.146;2023-04-02T16:44:42;8.00;99.90
7512;DHT22;9999;48.780;9.146;2023-04-02T16:47:25;8.00;99.90
7512;DHT22;9999;48.780;9.146;2023-04-02T16:49:58;8.00;99.90
7512;DHT22;9999;48.780;9.146;2023-04-02T16:52:33;8.00;99.90
7512;DHT22;9999;48.780;9.146;2023-04-02T16:55:27;8.00;99.90
7512;DHT22;9999;48.780;9.146;2023-04-02T16:58:03;7.90;99.90
7512;DHT22;9999;48.780;9.146;2023-04-02T17:00:39;7.90;99.90
7512;DHT22;9999;48.780;9.146;2023-04-02T17:06:21;7.80;99.90
7512;DHT22;9999;48.780;9.146;2023-04-02T17:08:56;7.80;99.90
7512;DHT22;9999;48.780;9.146;2023-04-02T17:11:32;7.70;99.90
7512;DHT22;9999;48.780;9.146;2023-04-02T17:14:04;7.70;99.90